Time;durP1;ratioP1;P1;durP2;ratioP2;P2;SDS_P1;SDS_P2;PMS_P1;PMS_P2;Temp;Humidity;BMP_temperature;BMP_pressure;BME280_temperature;BME280_humidity;BME280_pressure;Samples;Min_cycle;Max_cycle;Signal;HPM_P1;HPM_P2
2021/01/24 00:00:08;;;;;;;26.20;18.90;;;14.70;99.90;;;;;;5166231;27;20060;-85
2021/01/24 00:02:40;;;;;;;24.73;14.10;;;14.70;99.90;;;;;;5162317;27;20035;-85
2021/01/24 00:05:09;;;;;;;23.10;14.52;;;14.70;99.90;;;;;;5163431;27;20039;-85
2021/01/24 00:07:36;;;;;;;28.12;15.70;;;14.70;99.90;;;;;;5166646;27;20358;-84
2021/01/24 00:10:06;;;;;;;23.55;18.27;;;14.70;99.90;;;;;;5165197;27;20059;-85
2021/01/24 00:12:34;;;;;;;20.35;15.65;;;14.70;99.90;;;;;;5163798;27;20464;-85
2021/01/24 00:15:02;;;;;;;20.15;16.30;;;14.60;99.90;;;;;;5142873;27;20031;-84
2021/01/24 00:17:31;;;;;;;24.70;18.12;;;14.60;99.90;;;;;;5147760;27;20063;-85
2021/01/24 00:20:00;;;;;;;26.83;19.58;;;14.50;99.90;;;;;;5144366;27;20066;-84
2021/01/24 00:22:28;;;;;;;28.58;16.77;;;14.50;99.90;;;;;;5124311;27;20370;-84
2021/01/24 00:24:56;;;;;;;29.42;16.40;;;14.50;99.90;;;;;;5143070;27;20070;-85
2021/01/24 00:27:24;;;;;;;27.45;17.30;;;14.50;99.90;;;;;;5146693;27;20032;-85
2021/01/24 00:29:52;;;;;;;25.30;15.68;;;14.50;99.90;;;;;;5144897;27;20066;-84
2021/01/24 00:32:20;;;;;;;26.87;16.05;;;14.50;99.90;;;;;;5142495;27;20335;-85
2021/01/24 00:34:48;;;;;;;35.33;17.15;;;14.50;99.90;;;;;;5143148;27;20399;-84
2021/01/24 00:37:16;;;;;;;28.15;17.00;;;14.60;99.90;;;;;;5146675;27;20028;-84
2021/01/24 00:39:44;;;;;;;27.73;16.77;;;14.60;99.90;;;;;;5143305;27;20031;-85
2021/01/24 00:42:12;;;;;;;29.23;16.77;;;14.60;99.90;;;;;;5145919;27;20042;-85
2021/01/24 00:44:40;;;;;;;29.95;16.50;;;14.70;99.90;;;;;;5144613;27;20387;-85
2021/01/24 00:47:08;;;;;;;29.05;16.30;;;14.70;99.90;;;;;;5145754;27;20032;-84
2021/01/24 00:49:37;;;;;;;29.70;17.27;;;14.70;99.90;;;;;;5146232;27;20384;-84
2021/01/24 00:52:05;;;;;;;29.60;16.92;;;14.70;99.90;;;;;;5143161;27;20064;-84
2021/01/24 00:54:34;;;;;;;30.67;16.73;;;14.70;99.90;;;;;;5143680;27;20038;-84
2021/01/24 00:57:03;;;;;;;31.35;16.60;;;14.70;99.90;;;;;;5145209;27;20031;-84
2021/01/24 00:59:31;;;;;;;28.62;16.67;;;14.70;99.90;;;;;;5145358;27;20062;-84
2021/01/24 01:01:59;;;;;;;27.95;16.20;;;14.70;99.90;;;;;;5142752;27;20025;-85
2021/01/24 01:04:27;;;;;;;31.12;16.55;;;14.70;99.90;;;;;;5143607;27;20082;-84
2021/01/24 01:06:55;;;;;;;36.10;17.40;;;14.70;99.90;;;;;;5145046;27;20027;-84
2021/01/24 01:09:23;;;;;;;28.40;16.50;;;14.70;99.90;;;;;;5146192;27;20067;-84
2021/01/24 01:11:51;;;;;;;31.37;16.62;;;14.70;99.90;;;;;;5144038;27;20071;-84
2021/01/24 01:14:19;;;;;;;31.10;17.05;;;14.60;99.90;;;;;;5143683;27;20043;-84
2021/01/24 01:16:47;;;;;;;26.90;16.83;;;14.60;99.90;;;;;;5160536;27;20047;-84
2021/01/24 01:19:15;;;;;;;24.83;16.33;;;14.50;99.90;;;;;;5165919;27;20065;-84
2021/01/24 01:21:43;;;;;;;29.35;17.50;;;14.40;99.90;;;;;;5146310;27;20023;-85
2021/01/24 01:24:11;;;;;;;34.67;16.35;;;14.40;99.90;;;;;;5165804;27;20078;-85
2021/01/24 01:26:39;;;;;;;31.05;15.90;;;14.30;99.90;;;;;;5167755;27;20027;-85
2021/01/24 01:29:07;;;;;;;30.23;17.37;;;14.30;99.90;;;;;;5166221;27;20043;-84
2021/01/24 01:31:35;;;;;;;39.15;18.45;;;14.40;99.90;;;;;;5166860;27;20035;-85
2021/01/24 01:34:03;;;;;;;34.55;17.45;;;14.40;99.90;;;;;;5162761;27;20035;-84
2021/01/24 01:36:33;;;;;;;29.63;17.55;;;14.50;99.90;;;;;;5163781;27;20032;-84
2021/01/24 01:39:01;;;;;;;28.60;17.85;;;14.40;99.90;;;;;;5162257;27;20377;-84
2021/01/24 01:41:33;;;;;;;30.95;18.67;;;14.30;99.90;;;;;;5164071;27;20032;-84
2021/01/24 01:44:04;;;;;;;25.92;17.73;;;14.30;99.90;;;;;;5164004;27;20434;-85
2021/01/24 01:46:33;;;;;;;28.58;17.52;;;14.30;99.90;;;;;;5166310;27;20070;-84
2021/01/24 01:49:01;;;;;;;30.58;17.40;;;14.30;99.90;;;;;;5163668;27;20077;-84
2021/01/24 01:51:29;;;;;;;28.67;16.60;;;14.20;99.90;;;;;;5146436;27;20034;-84
2021/01/24 01:53:58;;;;;;;25.27;15.45;;;14.20;99.90;;;;;;5165392;27;20350;-85
2021/01/24 01:56:26;;;;;;;30.45;15.35;;;14.30;99.90;;;;;;5157112;27;20079;-84
2021/01/24 01:58:54;;;;;;;38.75;17.08;;;14.30;99.90;;;;;;5165753;27;20061;-84
2021/01/24 02:01:44;;;;;;;30.10;16.55;;;14.30;99.90;;;;;;5164851;27;20031;-84
2021/01/24 02:04:26;;;;;;;35.20;17.02;;;14.30;99.90;;;;;;5165156;27;20031;-85
2021/01/24 02:07:04;;;;;;;28.75;16.70;;;14.30;99.90;;;;;;5147193;27;20058;-84
2021/01/24 02:09:45;;;;;;;26.83;15.98;;;14.30;99.90;;;;;;5168596;27;20126;-85
2021/01/24 02:12:46;;;;;;;30.08;17.58;;;14.20;99.90;;;;;;5167660;27;20049;-85
2021/01/24 02:15:18;;;;;;;31.83;19.00;;;14.10;99.90;;;;;;5159255;27;20024;-85
2021/01/24 02:17:52;;;;;;;31.73;20.15;;;14.20;99.90;;;;;;5168458;27;20043;-84
2021/01/24 02:20:32;;;;;;;30.85;20.48;;;14.20;99.90;;;;;;5166005;27;20415;-85
2021/01/24 02:23:01;;;;;;;31.83;21.33;;;14.10;99.90;;;;;;5168159;27;20054;-84
2021/01/24 02:26:01;;;;;;;25.00;19.42;;;14.10;99.90;;;;;;5167570;27;20024;-84
2021/01/24 02:28:56;;;;;;;24.50;18.75;;;14.10;99.90;;;;;;5164330;27;20041;-85
2021/01/24 02:31:25;;;;;;;36.40;19.17;;;14.00;99.90;;;;;;5169749;27;20073;-84
2021/01/24 02:33:55;;;;;;;40.12;19.62;;;13.90;99.90;;;;;;5168846;27;20028;-84
2021/01/24 02:36:26;;;;;;;26.92;18.80;;;13.60;99.90;;;;;;5166862;27;20033;-85
2021/01/24 02:38:56;;;;;;;25.45;17.48;;;13.60;99.90;;;;;;5168397;27;20034;-84
2021/01/24 02:41:25;;;;;;;24.83;18.35;;;13.70;99.90;;;;;;5168522;27;20027;-84
2021/01/24 02:43:53;;;;;;;33.08;16.92;;;13.90;99.90;;;;;;5169608;27;20032;-84
2021/01/24 02:46:21;;;;;;;25.02;17.08;;;14.00;99.90;;;;;;5166136;27;20106;-85
2021/01/24 02:48:53;;;;;;;33.22;17.85;;;14.00;99.90;;;;;;5168515;27;20097;-85
2021/01/24 02:51:23;;;;;;;33.70;18.05;;;14.10;99.90;;;;;;5169686;27;20085;-84
2021/01/24 02:53:53;;;;;;;31.62;17.73;;;14.10;99.90;;;;;;5170515;27;20079;-84
2021/01/24 02:56:22;;;;;;;27.55;18.10;;;14.20;99.90;;;;;;5169103;27;20316;-84
2021/01/24 02:58:50;;;;;;;31.02;21.75;;;14.20;99.90;;;;;;5150128;27;20496;-84
2021/01/24 03:01:18;;;;;;;26.77;17.48;;;14.30;99.90;;;;;;5168454;27;20027;-85
2021/01/24 03:03:47;;;;;;;28.90;17.27;;;14.40;99.90;;;;;;5169120;27;20390;-84
2021/01/24 03:06:16;;;;;;;30.58;17.77;;;14.30;99.90;;;;;;5167822;27;20460;-84
2021/01/24 03:08:45;;;;;;;30.85;18.37;;;14.30;99.90;;;;;;5150053;27;20355;-84
2021/01/24 03:11:20;;;;;;;28.10;17.33;;;14.30;99.90;;;;;;5142377;27;20063;-94
2021/01/24 03:13:50;;;;;;;31.67;17.87;;;14.30;99.90;;;;;;5134653;27;20024;-93
2021/01/24 03:16:40;;;;;;;27.70;18.77;;;14.40;99.90;;;;;;5121043;27;20015;-95
2021/01/24 03:19:16;;;;;;;32.08;18.73;;;14.40;99.90;;;;;;5136135;27;20036;-94
2021/01/24 03:21:48;;;;;;;33.03;18.02;;;14.40;99.90;;;;;;5117767;27;20071;-95
2021/01/24 03:24:29;;;;;;;31.62;18.30;;;14.50;99.90;;;;;;5117929;27;20031;-95
2021/01/24 03:27:00;;;;;;;40.88;23.10;;;14.50;99.90;;;;;;5117125;27;20847;-93
2021/01/24 03:29:33;;;;;;;34.35;18.80;;;14.60;99.90;;;;;;5117557;27;20074;-95
2021/01/24 03:32:01;;;;;;;31.62;17.85;;;14.60;99.90;;;;;;5116985;27;20098;-94
2021/01/24 03:34:32;;;;;;;28.12;18.60;;;14.50;99.90;;;;;;5134821;27;20038;-95
2021/01/24 03:37:03;;;;;;;28.30;17.48;;;14.50;99.90;;;;;;5120263;27;20063;-94
2021/01/24 03:39:33;;;;;;;27.55;17.60;;;14.50;99.90;;;;;;5137442;27;20074;-94
2021/01/24 03:42:04;;;;;;;28.23;17.60;;;14.50;99.90;;;;;;5119478;27;20031;-96
2021/01/24 03:44:41;;;;;;;32.20;17.95;;;14.40;99.90;;;;;;5134920;27;20119;-94
2021/01/24 03:47:15;;;;;;;27.70;17.75;;;14.40;99.90;;;;;;5119548;27;20667;-96
2021/01/24 03:49:50;;;;;;;29.05;17.90;;;14.50;99.90;;;;;;5118932;27;20015;-94
2021/01/24 03:52:18;;;;;;;31.87;18.17;;;14.50;99.90;;;;;;5118108;27;20031;-95
2021/01/24 03:54:50;;;;;;;29.35;17.70;;;14.50;99.90;;;;;;5118576;27;20032;-95
2021/01/24 03:57:18;;;;;;;35.83;18.15;;;14.60;99.90;;;;;;5135173;27;20031;-94
2021/01/24 03:59:51;;;;;;;31.92;18.52;;;14.50;99.90;;;;;;5118313;27;20024;-94
2021/01/24 04:02:20;;;;;;;36.13;19.00;;;14.50;99.90;;;;;;5118737;27;20038;-96
2021/01/24 04:04:49;;;;;;;36.88;18.73;;;14.50;99.90;;;;;;5118267;27;20063;-95
2021/01/24 04:07:26;;;;;;;38.35;18.25;;;14.50;99.90;;;;;;5119159;27;20031;-95
2021/01/24 04:09:55;;;;;;;34.67;18.55;;;14.60;99.90;;;;;;5117581;27;20024;-95
2021/01/24 04:12:23;;;;;;;38.63;19.27;;;14.60;99.90;;;;;;5118429;27;20035;-96
2021/01/24 04:14:51;;;;;;;38.70;19.50;;;14.50;99.90;;;;;;5117899;27;20020;-95
2021/01/24 04:17:25;;;;;;;35.35;19.17;;;14.50;99.90;;;;;;5118686;27;20097;-95
2021/01/24 04:19:55;;;;;;;38.63;19.15;;;14.50;99.90;;;;;;5119049;27;20456;-95
2021/01/24 04:22:25;;;;;;;25.88;18.08;;;14.50;99.90;;;;;;5118812;27;20107;-95
2021/01/24 04:24:53;;;;;;;32.22;18.50;;;14.50;99.90;;;;;;5118549;27;20704;-95
2021/01/24 04:27:21;;;;;;;36.35;18.02;;;14.40;99.90;;;;;;5117878;27;20106;-95
2021/01/24 04:30:02;;;;;;;33.35;18.08;;;14.50;99.90;;;;;;5135688;27;20016;-95
2021/01/24 04:32:30;;;;;;;31.20;18.10;;;14.40;99.90;;;;;;5118797;27;20063;-96
2021/01/24 04:35:04;;;;;;;30.65;17.23;;;14.50;99.90;;;;;;5119213;27;20054;-95
2021/01/24 04:37:32;;;;;;;29.30;17.27;;;14.40;99.90;;;;;;5129986;27;20357;-96
2021/01/24 04:40:03;;;;;;;29.70;17.80;;;14.50;99.90;;;;;;5118105;27;20122;-94
2021/01/24 04:42:35;;;;;;;34.85;17.50;;;14.50;99.90;;;;;;5118155;27;20026;-95
2021/01/24 04:45:09;;;;;;;28.15;16.98;;;14.50;99.90;;;;;;5136606;27;20019;-95
2021/01/24 04:47:44;;;;;;;32.60;17.45;;;14.50;99.90;;;;;;5135787;27;20020;-96
2021/01/24 04:50:35;;;;;;;26.90;17.58;;;14.50;99.90;;;;;;5120779;27;20022;-96
2021/01/24 04:53:02;;;;;;;39.03;18.10;;;14.50;99.90;;;;;;5135266;27;20087;-96
2021/01/24 04:55:36;;;;;;;38.80;18.25;;;14.30;99.90;;;;;;5118075;27;20068;-96
2021/01/24 04:58:04;;;;;;;31.02;17.77;;;14.20;99.90;;;;;;5114095;27;20072;-95
2021/01/24 05:00:34;;;;;;;39.92;18.05;;;14.10;99.90;;;;;;5132683;27;20067;-96
2021/01/24 05:03:04;;;;;;;31.50;17.35;;;14.10;99.90;;;;;;5134111;27;20448;-95
2021/01/24 05:05:32;;;;;;;31.85;16.85;;;13.90;99.90;;;;;;5117776;27;20038;-94
2021/01/24 05:08:07;;;;;;;27.02;16.83;;;13.80;99.90;;;;;;5134635;27;20078;-95
2021/01/24 05:10:47;;;;;;;26.00;17.08;;;13.80;99.90;;;;;;5118091;27;20070;-96
2021/01/24 05:13:25;;;;;;;21.83;16.77;;;13.80;99.90;;;;;;5134372;27;20043;-94
2021/01/24 05:16:00;;;;;;;22.92;18.83;;;13.80;99.90;;;;;;5117922;27;20358;-96
2021/01/24 05:18:30;;;;;;;37.75;17.40;;;14.00;99.90;;;;;;5117132;27;20374;-95
2021/01/24 05:21:09;;;;;;;28.42;17.12;;;13.90;99.90;;;;;;5117575;27;20078;-95
2021/01/24 05:23:37;;;;;;;14.85;3.47;;;13.80;99.90;;;;;;5117657;27;20024;-96
2021/01/24 05:26:12;;;;;;;24.23;2.85;;;13.70;99.90;;;;;;5118385;27;20024;-95
2021/01/24 05:28:47;;;;;;;29.58;16.80;;;13.60;99.90;;;;;;5135266;27;20453;-96
2021/01/24 05:31:21;;;;;;;28.62;5.57;;;13.50;99.90;;;;;;5116928;27;20032;-95
2021/01/24 05:33:57;;;;;;;27.70;17.50;;;13.50;99.90;;;;;;5119055;27;20036;-96
2021/01/24 05:36:40;;;;;;;35.40;18.37;;;13.40;99.90;;;;;;5117245;27;20028;-95
2021/01/24 05:39:21;;;;;;;37.90;17.80;;;13.40;99.90;;;;;;5117766;27;20077;-95
2021/01/24 05:41:57;;;;;;;38.88;18.20;;;13.50;99.90;;;;;;5117433;27;20424;-95
2021/01/24 05:44:33;;;;;;;35.60;18.20;;;13.30;99.90;;;;;;5135080;27;20015;-95
2021/01/24 05:47:06;;;;;;;25.77;17.52;;;13.00;99.90;;;;;;5133969;27;20452;-96
2021/01/24 05:49:34;;;;;;;30.65;20.23;;;13.00;99.90;;;;;;5116980;27;20429;-95
2021/01/24 05:52:08;;;;;;;33.47;18.67;;;13.00;99.90;;;;;;5117834;27;20067;-95
2021/01/24 05:54:44;;;;;;;34.05;18.50;;;13.10;99.90;;;;;;5100450;27;20058;-96
2021/01/24 05:57:17;;;;;;;34.22;20.27;;;13.10;99.90;;;;;;5133368;27;20039;-96
2021/01/24 05:59:51;;;;;;;29.05;18.73;;;13.20;99.90;;;;;;5134170;27;20030;-95
2021/01/24 06:02:21;;;;;;;20.90;17.95;;;13.30;99.90;;;;;;5116636;27;20358;-96
2021/01/24 06:04:55;;;;;;;30.90;19.87;;;13.50;99.90;;;;;;5116828;27;20027;-94
2021/01/24 06:07:36;;;;;;;39.00;20.17;;;13.60;99.90;;;;;;5116228;27;20034;-95
2021/01/24 06:10:06;;;;;;;32.50;19.65;;;13.70;99.90;;;;;;5117042;27;20034;-95
2021/01/24 06:12:46;;;;;;;34.35;19.10;;;13.80;99.90;;;;;;5117184;27;20460;-92
2021/01/24 06:15:16;;;;;;;39.53;19.67;;;13.90;99.90;;;;;;5116554;27;20028;-93
2021/01/24 06:17:48;;;;;;;28.27;19.08;;;14.00;99.90;;;;;;5116142;27;20023;-95
2021/01/24 06:20:22;;;;;;;31.85;19.20;;;14.00;99.90;;;;;;5133936;27;20019;-95
2021/01/24 06:23:17;;;;;;;29.50;14.63;;;14.10;99.90;;;;;;5114198;27;20023;-96
2021/01/24 06:26:16;;;;;;;21.10;7.28;;;14.20;99.90;;;;;;5130133;27;20054;-94
2021/01/24 06:28:47;;;;;;;22.48;3.80;;;14.20;99.90;;;;;;5113845;27;20027;-94
2021/01/24 06:31:22;;;;;;;22.10;6.25;;;14.20;99.90;;;;;;5113550;27;20050;-94
2021/01/24 06:33:54;;;;;;;20.02;3.65;;;14.20;99.90;;;;;;5114689;27;20448;-94
2021/01/24 06:36:26;;;;;;;22.75;4.12;;;14.10;99.90;;;;;;5133436;27;20067;-95
2021/01/24 06:38:55;;;;;;;24.10;3.65;;;14.10;99.90;;;;;;5116515;27;20676;-94
2021/01/24 06:41:56;;;;;;;18.45;3.00;;;14.10;99.90;;;;;;5116421;27;20042;-95
2021/01/24 06:44:37;;;;;;;24.12;3.90;;;13.90;99.90;;;;;;5116907;27;20027;-94
2021/01/24 06:47:41;;;;;;;26.02;8.90;;;13.80;99.90;;;;;;5117862;27;20404;-95
2021/01/24 06:50:42;;;;;;;28.70;14.00;;;13.70;99.90;;;;;;5079258;27;20430;-95
2021/01/24 06:53:24;;;;;;;35.70;4.05;;;13.70;99.90;;;;;;5113852;27;20059;-95
2021/01/24 06:55:58;;;;;;;23.65;3.45;;;13.60;99.90;;;;;;5133526;27;20036;-94
2021/01/24 06:58:34;;;;;;;31.65;3.58;;;13.50;99.90;;;;;;5113173;27;20358;-94
2021/01/24 07:01:26;;;;;;;34.17;11.63;;;13.50;99.90;;;;;;5112601;27;20032;-96
2021/01/24 07:04:28;;;;;;;28.90;17.87;;;13.70;99.90;;;;;;5112726;27;20066;-94
2021/01/24 07:07:00;;;;;;;37.58;18.02;;;13.90;99.90;;;;;;5112926;27;20501;-96
2021/01/24 07:09:31;;;;;;;37.42;17.35;;;13.90;99.90;;;;;;5113435;27;20024;-95
2021/01/24 07:12:05;;;;;;;40.12;23.67;;;13.80;99.90;;;;;;5113638;27;20081;-95
2021/01/24 07:14:36;;;;;;;31.08;3.30;;;13.80;99.90;;;;;;5129055;27;20294;-96
2021/01/24 07:17:09;;;;;;;23.80;3.00;;;13.80;99.90;;;;;;5114145;27;20020;-95
2021/01/24 07:19:54;;;;;;;33.10;16.17;;;13.80;99.90;;;;;;5113710;27;20477;-96
2021/01/24 07:22:24;;;;;;;43.03;19.17;;;13.90;99.90;;;;;;5098187;27;20042;-95
2021/01/24 07:24:56;;;;;;;17.85;5.68;;;13.70;99.90;;;;;;5129330;27;20036;-95
2021/01/24 07:27:28;;;;;;;32.42;15.60;;;13.40;99.90;;;;;;5113682;27;20047;-95
2021/01/24 07:29:58;;;;;;;;;;;13.30;99.90;;;;;;5113015;27;20066;-95
2021/01/24 07:32:28;;;;;;;34.65;15.90;;;13.20;99.90;;;;;;5097286;27;20278;-94
2021/01/24 07:35:00;;;;;;;32.05;15.23;;;13.20;99.90;;;;;;5117341;27;20406;-96
2021/01/24 07:37:30;;;;;;;29.02;16.10;;;13.40;99.90;;;;;;5097753;27;20448;-94
2021/01/24 07:40:05;;;;;;;24.33;16.87;;;13.40;99.90;;;;;;5117882;27;20476;-95
2021/01/24 07:42:46;;;;;;;28.55;16.55;;;13.60;99.90;;;;;;5114990;27;20043;-96
2021/01/24 07:45:15;;;;;;;19.90;15.77;;;13.60;99.90;;;;;;5115640;27;20031;-96
2021/01/24 07:47:53;;;;;;;44.60;15.65;;;13.60;99.90;;;;;;5134614;27;20055;-96
2021/01/24 07:50:23;;;;;;;24.90;14.80;;;13.50;99.90;;;;;;5116811;27;20046;-95
2021/01/24 07:52:59;;;;;;;24.63;14.98;;;13.30;99.90;;;;;;5104353;27;20050;-93
2021/01/24 07:55:33;;;;;;;23.90;14.52;;;13.30;99.90;;;;;;5123774;27;20351;-94
2021/01/24 07:58:06;;;;;;;21.42;15.55;;;13.50;99.90;;;;;;5104010;27;20022;-95
2021/01/24 08:00:37;;;;;;;26.85;18.92;;;13.60;99.90;;;;;;5136440;27;20398;-94
2021/01/24 08:03:09;;;;;;;33.08;19.10;;;13.80;99.90;;;;;;5116718;27;20063;-95
2021/01/24 08:05:37;;;;;;;27.00;15.52;;;13.80;99.90;;;;;;5115695;27;20020;-95
2021/01/24 08:08:10;;;;;;;22.90;6.35;;;14.10;99.90;;;;;;5115953;27;20026;-96
2021/01/24 08:10:38;;;;;;;22.52;3.72;;;14.50;99.90;;;;;;5115755;27;20035;-95
2021/01/24 08:13:06;;;;;;;21.12;3.47;;;14.70;99.90;;;;;;5116548;27;20067;-93
2021/01/24 08:15:40;;;;;;;29.95;15.95;;;15.00;99.90;;;;;;5114095;27;20055;-95
2021/01/24 08:18:15;;;;;;;32.85;15.43;;;15.40;99.90;;;;;;5115438;27;20019;-95
2021/01/24 08:20:44;;;;;;;26.37;12.35;;;16.10;99.90;;;;;;5131957;27;20036;-95
2021/01/24 08:23:17;;;;;;;22.67;3.90;;;16.80;99.90;;;;;;5114295;27;20031;-95
2021/01/24 08:25:52;;;;;;;30.12;16.83;;;17.70;99.90;;;;;;5131274;27;20334;-95
2021/01/24 08:28:26;;;;;;;20.90;7.27;;;18.40;99.90;;;;;;5114445;27;20035;-94
2021/01/24 08:30:59;;;;;;;27.20;16.25;;;19.10;99.90;;;;;;5130190;27;20402;-96
2021/01/24 08:33:28;;;;;;;20.75;12.93;;;20.00;99.90;;;;;;5113858;27;20040;-96
2021/01/24 08:36:16;;;;;;;22.30;7.50;;;20.70;99.90;;;;;;5112804;27;20027;-96
2021/01/24 08:38:49;;;;;;;17.10;10.55;;;21.50;99.90;;;;;;5114227;27;20422;-96
2021/01/24 08:41:29;;;;;;;19.80;14.63;;;22.80;97.90;;;;;;5129550;27;20067;-96
2021/01/24 08:44:15;;;;;;;12.80;3.50;;;23.20;93.70;;;;;;5130169;27;20028;-96
2021/01/24 08:46:51;;;;;;;12.75;4.00;;;23.70;92.00;;;;;;5114674;27;20031;-96
2021/01/24 08:49:33;;;;;;;12.15;3.37;;;24.30;90.90;;;;;;5115478;27;20024;-96
2021/01/24 08:52:05;;;;;;;11.88;3.80;;;24.80;87.40;;;;;;5114744;27;20336;-95
2021/01/24 08:55:00;;;;;;;9.63;2.83;;;24.80;85.30;;;;;;5102691;27;20028;-96
2021/01/24 08:57:34;;;;;;;11.02;3.12;;;24.70;86.50;;;;;;5114443;27;20027;-96
2021/01/24 09:00:08;;;;;;;10.95;3.60;;;25.30;83.20;;;;;;5115968;27;20034;-96
2021/01/24 09:02:41;;;;;;;15.40;3.50;;;26.20;79.40;;;;;;5130759;27;20067;-96
2021/01/24 09:05:32;;;;;;;9.88;3.12;;;26.30;77.00;;;;;;5117528;27;20055;-96
2021/01/24 09:08:31;;;;;;;9.05;3.12;;;26.30;74.80;;;;;;5112855;27;20043;-96
2021/01/24 09:10:59;;;;;;;;;;;26.40;74.20;;;;;;5130726;27;20038;-96
2021/01/24 09:13:43;;;;;;;10.27;3.08;;;26.90;73.40;;;;;;5134280;27;19939;-96
2021/01/24 09:16:41;;;;;;;8.35;2.55;;;27.40;71.50;;;;;;5121770;27;20051;-96
2021/01/24 09:19:17;;;;;;;10.00;2.95;;;27.10;72.80;;;;;;5116616;27;20155;-96
2021/01/24 09:22:00;;;;;;;8.00;2.75;;;26.50;71.70;;;;;;5132981;27;20410;-96
2021/01/24 09:25:05;;;;;;;11.05;2.80;;;26.50;69.40;;;;;;5121778;27;20063;-96
2021/01/24 09:27:44;;;;;;;11.45;3.03;;;27.30;70.40;;;;;;5112969;27;20717;-94
2021/01/24 09:30:17;;;;;;;9.73;2.92;;;27.80;67.10;;;;;;5113205;27;20378;-95
2021/01/24 09:32:45;;;;;;;7.10;2.85;;;28.00;68.00;;;;;;5110930;27;20075;-95
2021/01/24 09:35:30;;;;;;;12.57;3.37;;;27.60;67.10;;;;;;5114203;27;20034;-94
2021/01/24 09:38:10;;;;;;;12.43;3.20;;;27.70;66.60;;;;;;5130510;27;20035;-95
2021/01/24 09:40:55;;;;;;;8.32;3.30;;;27.90;66.50;;;;;;5113041;27;20031;-96
2021/01/24 09:43:36;;;;;;;6.05;2.97;;;28.50;64.20;;;;;;5131720;27;20755;-96
2021/01/24 09:46:13;;;;;;;8.90;3.30;;;28.40;63.40;;;;;;5129270;27;20042;-95
2021/01/24 09:48:44;;;;;;;8.05;3.08;;;29.20;63.00;;;;;;5111245;27;20077;-95
2021/01/24 09:51:12;;;;;;;6.45;2.55;;;29.20;61.30;;;;;;5127814;27;20036;-94
2021/01/24 09:53:40;;;;;;;8.75;3.10;;;28.70;60.20;;;;;;5113021;27;20067;-95
2021/01/24 09:56:16;;;;;;;10.27;2.58;;;28.60;61.30;;;;;;5113613;27;20039;-94
2021/01/24 09:58:44;;;;;;;8.63;3.05;;;26.70;63.80;;;;;;5111974;27;20032;-96
2021/01/24 10:01:13;;;;;;;9.13;2.67;;;27.60;65.70;;;;;;5109241;27;20074;-96
2021/01/24 10:03:41;;;;;;;10.25;3.10;;;27.20;63.10;;;;;;5110493;27;20484;-94
2021/01/24 10:06:09;;;;;;;11.68;3.53;;;28.00;64.80;;;;;;5112498;27;20070;-96
2021/01/24 10:08:37;;;;;;;8.27;3.40;;;28.90;61.60;;;;;;5114134;27;20186;-96
2021/01/24 10:11:06;;;;;;;9.07;3.55;;;29.00;60.00;;;;;;5111701;27;20369;-96
2021/01/24 10:13:35;;;;;;;8.27;3.33;;;28.90;62.10;;;;;;5112665;27;20541;-95
2021/01/24 10:16:05;;;;;;;7.22;2.50;;;30.00;58.70;;;;;;5131252;27;20036;-96
2021/01/24 10:18:33;;;;;;;8.88;2.87;;;30.10;56.20;;;;;;5114606;27;20034;-96
2021/01/24 10:21:07;;;;;;;9.65;3.08;;;28.50;57.20;;;;;;5128693;27;20441;-96
2021/01/24 10:23:36;;;;;;;9.52;2.97;;;28.30;59.40;;;;;;5113988;27;20035;-95
2021/01/24 10:26:04;;;;;;;8.88;3.12;;;28.50;59.10;;;;;;5112444;27;20055;-95
2021/01/24 10:28:35;;;;;;;8.13;2.87;;;28.80;57.90;;;;;;5130730;27;20041;-95
2021/01/24 10:31:03;;;;;;;9.02;2.90;;;29.70;55.90;;;;;;5113535;27;20042;-96
2021/01/24 10:33:37;;;;;;;7.65;2.90;;;30.30;55.90;;;;;;5098309;27;20374;-96
2021/01/24 10:36:12;;;;;;;8.73;2.83;;;29.70;53.20;;;;;;5113563;27;20039;-94
2021/01/24 10:38:40;;;;;;;6.90;2.75;;;28.30;58.60;;;;;;5117976;27;20020;-95
2021/01/24 10:41:13;;;;;;;7.22;2.55;;;28.60;58.30;;;;;;5117847;27;20039;-95
2021/01/24 10:43:41;;;;;;;9.88;2.50;;;28.40;56.60;;;;;;5116367;27;20043;-96
2021/01/24 10:46:24;;;;;;;;;;;27.90;56.60;;;;;;5132696;27;20024;-94
2021/01/24 10:49:02;;;;;;;7.82;2.70;;;28.00;57.60;;;;;;5114609;27;19958;-96
2021/01/24 10:51:32;;;;;;;15.82;3.55;;;28.90;56.60;;;;;;5113558;27;20047;-95
2021/01/24 10:54:06;;;;;;;9.15;3.03;;;30.10;54.20;;;;;;5112775;27;20039;-95
2021/01/24 10:56:36;;;;;;;10.48;2.87;;;29.80;52.80;;;;;;5137459;27;20015;-96
2021/01/24 10:59:10;;;;;;;13.88;3.20;;;29.80;49.90;;;;;;5105075;27;20033;-96
2021/01/24 11:01:44;;;;;;;8.73;2.80;;;30.80;52.10;;;;;;5125060;27;20043;-96
2021/01/24 11:04:22;;;;;;;9.73;3.15;;;30.80;50.00;;;;;;5131886;27;20016;-96
2021/01/24 11:07:09;;;;;;;7.37;2.90;;;31.00;49.70;;;;;;5127697;27;20031;-94
2021/01/24 11:09:38;;;;;;;12.15;3.28;;;32.00;49.00;;;;;;5131690;27;20027;-95
2021/01/24 11:12:06;;;;;;;11.23;2.87;;;30.70;49.40;;;;;;5132425;27;20774;-96
2021/01/24 11:14:45;;;;;;;10.98;3.40;;;31.10;48.40;;;;;;5116144;27;20054;-95
2021/01/24 11:17:16;;;;;;;11.80;2.72;;;32.60;48.00;;;;;;5115485;27;20070;-95
2021/01/24 11:19:51;;;;;;;9.05;3.00;;;31.00;48.60;;;;;;5134891;27;20429;-96
2021/01/24 11:22:33;;;;;;;11.35;2.80;;;29.40;52.90;;;;;;5135935;27;20043;-96
2021/01/24 11:25:11;;;;;;;15.82;3.33;;;30.10;51.90;;;;;;5116358;27;20032;-94
2021/01/24 11:27:44;;;;;;;9.88;3.20;;;28.70;54.30;;;;;;5117148;27;20418;-95
2021/01/24 11:30:19;;;;;;;11.85;2.60;;;29.50;55.20;;;;;;5115826;27;20038;-94
2021/01/24 11:32:55;;;;;;;9.68;2.58;;;29.70;53.60;;;;;;5115250;27;20029;-95
2021/01/24 11:35:29;;;;;;;10.50;3.20;;;28.00;54.30;;;;;;5131505;27;20079;-93
2021/01/24 11:38:05;;;;;;;20.48;3.00;;;28.90;55.00;;;;;;5113808;27;20028;-93
2021/01/24 11:40:36;;;;;;;13.02;3.33;;;26.00;59.30;;;;;;5099121;27;20035;-96
2021/01/24 11:43:04;;;;;;;10.63;3.03;;;25.90;67.50;;;;;;5116425;27;20035;-95
2021/01/24 11:45:56;;;;;;;11.48;3.35;;;26.90;62.30;;;;;;5135696;27;20142;-94
2021/01/24 11:48:31;;;;;;;10.55;3.22;;;27.90;58.70;;;;;;5133225;27;20390;-94
2021/01/24 11:51:23;;;;;;;10.73;3.47;;;28.80;57.00;;;;;;5120163;27;20024;-95
2021/01/24 11:53:58;;;;;;;16.12;3.60;;;28.80;55.40;;;;;;5113990;27;20031;-95
2021/01/24 11:56:33;;;;;;;7.62;2.70;;;26.60;60.30;;;;;;5115218;27;20047;-94
2021/01/24 11:59:17;;;;;;;12.15;3.25;;;27.20;61.90;;;;;;5133201;27;20050;-95
2021/01/24 12:01:50;;;;;;;12.18;2.72;;;28.00;60.40;;;;;;5116325;27;20044;-96
2021/01/24 12:04:23;;;;;;;10.52;2.50;;;27.60;59.10;;;;;;5132517;27;20104;-94
2021/01/24 12:06:51;;;;;;;14.95;3.30;;;25.10;67.40;;;;;;5150805;27;20034;-96
2021/01/24 12:09:20;;;;;;;20.33;3.65;;;25.30;69.20;;;;;;5118170;27;20024;-95
2021/01/24 12:11:53;;;;;;;15.77;3.60;;;26.20;66.60;;;;;;5118629;27;20027;-95
2021/01/24 12:14:28;;;;;;;11.25;2.87;;;26.30;68.50;;;;;;5128259;27;20087;-96
2021/01/24 12:17:24;;;;;;;8.05;2.72;;;27.50;63.10;;;;;;5109020;27;20037;-95
2021/01/24 12:19:54;;;;;;;12.15;2.85;;;28.60;57.80;;;;;;5119090;27;20044;-96
2021/01/24 12:22:22;;;;;;;9.38;2.87;;;29.10;57.30;;;;;;5117636;27;20024;-96
2021/01/24 12:25:10;;;;;;;11.68;2.78;;;28.50;57.90;;;;;;5136776;27;20560;-96
2021/01/24 12:27:39;;;;;;;9.63;2.55;;;28.30;57.30;;;;;;5116261;27;20028;-93
2021/01/24 12:30:14;;;;;;;10.85;2.60;;;27.30;58.90;;;;;;5134008;27;20040;-96
2021/01/24 12:32:42;;;;;;;9.23;2.35;;;26.50;63.70;;;;;;5131901;27;20028;-95
2021/01/24 12:35:15;;;;;;;9.00;2.40;;;25.10;67.00;;;;;;5116825;27;20415;-95
2021/01/24 12:37:43;;;;;;;13.02;2.95;;;23.50;75.00;;;;;;5115904;27;20080;-95
2021/01/24 12:40:18;;;;;;;10.85;2.50;;;23.00;83.40;;;;;;5117521;27;20071;-95
2021/01/24 12:42:54;;;;;;;13.25;3.05;;;22.60;87.20;;;;;;5116297;27;20042;-95
2021/01/24 12:45:26;;;;;;;8.82;2.87;;;25.00;76.80;;;;;;5100457;27;20027;-95
2021/01/24 12:47:54;;;;;;;13.32;2.85;;;26.40;69.30;;;;;;5116642;27;20019;-95
2021/01/24 12:50:30;;;;;;;13.25;2.95;;;27.40;66.30;;;;;;5137418;27;20067;-94
2021/01/24 12:53:01;;;;;;;12.05;2.70;;;25.20;72.70;;;;;;5135947;27;20063;-94
2021/01/24 12:55:29;;;;;;;11.12;2.60;;;24.30;76.80;;;;;;5135078;27;20352;-94
2021/01/24 12:58:00;;;;;;;11.07;2.55;;;24.50;79.60;;;;;;5116320;27;20024;-94
2021/01/24 13:00:28;;;;;;;9.93;2.28;;;24.50;75.30;;;;;;5154033;27;20414;-96
2021/01/24 13:02:58;;;;;;;14.55;2.55;;;24.00;75.70;;;;;;5151257;27;20023;-95
2021/01/24 13:05:27;;;;;;;8.68;2.40;;;23.70;78.60;;;;;;5107102;27;20032;-94